sensor_id;sensor_type;location;lat;lon;timestamp;temperature;humidity
32522;DHT22;18963;51.504;5.316;2023-03-01T00:01:39;-4.10;99.90
32522;DHT22;18963;51.504;5.316;2023-03-01T00:04:05;-4.10;99.90
32522;DHT22;18963;51.504;5.316;2023-03-01T00:06:31;-4.00;99.90
32522;DHT22;18963;51.504;5.316;2023-03-01T00:08:56;-4.00;99.90
32522;DHT22;18963;51.504;5.316;2023-03-01T00:11:26;-4.00;99.90
32522;DHT22;18963;51.504;5.316;2023-03-01T00:13:53;-3.90;99.90
32522;DHT22;18963;51.504;5.316;2023-03-01T00:16:23;-3.90;99.90
32522;DHT22;18963;51.504;5.316;2023-03-01T00:18:49;-3.90;99.90
32522;DHT22;18963;51.504;5.316;2023-03-01T00:21:16;-3.80;99.90
32522;DHT22;18963;51.504;5.316;2023-03-01T00:23:41;-3.70;99.90
32522;DHT22;18963;51.504;5.316;2023-03-01T00:26:11;-3.70;99.90
32522;DHT22;18963;51.504;5.316;2023-03-01T00:28:37;-3.60;99.90
32522;DHT22;18963;51.504;5.316;2023-03-01T00:31:04;-3.60;99.90
32522;DHT22;18963;51.504;5.316;2023-03-01T00:33:29;-3.60;99.90
32522;DHT22;18963;51.504;5.316;2023-03-01T00:35:57;-3.70;99.90
32522;DHT22;18963;51.504;5.316;2023-03-01T00:38:22;-3.70;99.90
32522;DHT22;18963;51.504;5.316;2023-03-01T00:40:48;-3.70;99.90
32522;DHT22;18963;51.504;5.316;2023-03-01T00:43:13;-3.70;99.90
32522;DHT22;18963;51.504;5.316;2023-03-01T00:45:39;-3.70;99.90
32522;DHT22;18963;51.504;5.316;2023-03-01T00:48:04;-3.70;99.90
32522;DHT22;18963;51.504;5.316;2023-03-01T00:50:30;-3.60;99.90
32522;DHT22;18963;51.504;5.316;2023-03-01T00:52:56;-3.50;99.90
32522;DHT22;18963;51.504;5.316;2023-03-01T00:55:21;-3.50;99.90
32522;DHT22;18963;51.504;5.316;2023-03-01T00:57:47;-3.40;99.90
32522;DHT22;18963;51.504;5.316;2023-03-01T01:00:12;-3.40;99.90
32522;DHT22;18963;51.504;5.316;2023-03-01T01:02:38;-3.40;99.90
32522;DHT22;18963;51.504;5.316;2023-03-01T01:05:04;-3.40;99.90
32522;DHT22;18963;51.504;5.316;2023-03-01T01:07:29;-3.30;99.90
32522;DHT22;18963;51.504;5.316;2023-03-01T01:09:55;-3.30;99.90
32522;DHT22;18963;51.504;5.316;2023-03-01T01:12:20;-3.40;99.90
32522;DHT22;18963;51.504;5.316;2023-03-01T01:14:46;-3.50;99.90
32522;DHT22;18963;51.504;5.316;2023-03-01T01:17:11;-3.60;99.90
32522;DHT22;18963;51.504;5.316;2023-03-01T01:19:37;-3.70;99.90
32522;DHT22;18963;51.504;5.316;2023-03-01T01:22:02;-3.80;99.90
32522;DHT22;18963;51.504;5.316;2023-03-01T01:24:28;-3.80;99.90
32522;DHT22;18963;51.504;5.316;2023-03-01T01:26:54;-3.80;99.90
32522;DHT22;18963;51.504;5.316;2023-03-01T01:29:19;-3.80;99.90
32522;DHT22;18963;51.504;5.316;2023-03-01T01:31:45;-3.90;99.90
32522;DHT22;18963;51.504;5.316;2023-03-01T01:34:18;-4.00;99.90
32522;DHT22;18963;51.504;5.316;2023-03-01T01:36:44;-4.00;99.90
32522;DHT22;18963;51.504;5.316;2023-03-01T01:39:12;-4.00;99.90
32522;DHT22;18963;51.504;5.316;2023-03-01T01:41:39;-4.20;99.90
32522;DHT22;18963;51.504;5.316;2023-03-01T01:49:37;-4.30;99.90
32522;DHT22;18963;51.504;5.316;2023-03-01T01:54:34;-4.20;99.90
32522;DHT22;18963;51.504;5.316;2023-03-01T01:57:03;-4.30;99.90
32522;DHT22;18963;51.504;5.316;2023-03-01T01:59:29;-4.20;99.90
32522;DHT22;18963;51.504;5.316;2023-03-01T02:01:55;-4.20;99.90
32522;DHT22;18963;51.504;5.316;2023-03-01T02:04:23;-4.20;99.90
32522;DHT22;18963;51.504;5.316;2023-03-01T02:06:50;-4.20;99.90
32522;DHT22;18963;51.504;5.316;2023-03-01T02:09:18;-4.20;99.90
32522;DHT22;18963;51.504;5.316;2023-03-01T02:11:45;-4.20;99.90
32522;DHT22;18963;51.504;5.316;2023-03-01T02:14:12;-4.30;99.90
32522;DHT22;18963;51.504;5.316;2023-03-01T02:16:37;-4.30;99.90
32522;DHT22;18963;51.504;5.316;2023-03-01T02:19:03;-4.40;99.90
32522;DHT22;18963;51.504;5.316;2023-03-01T02:23:55;-4.50;99.90
32522;DHT22;18963;51.504;5.316;2023-03-01T02:29:05;-4.50;99.90
32522;DHT22;18963;51.504;5.316;2023-03-01T02:31:31;-4.50;99.90
32522;DHT22;18963;51.504;5.316;2023-03-01T02:34:20;-4.60;99.90
32522;DHT22;18963;51.504;5.316;2023-03-01T02:36:51;-4.50;99.90
32522;DHT22;18963;51.504;5.316;2023-03-01T02:39:22;-4.50;99.90
32522;DHT22;18963;51.504;5.316;2023-03-01T02:41:51;-4.50;99.90
32522;DHT22;18963;51.504;5.316;2023-03-01T02:44:17;-4.40;99.90
32522;DHT22;18963;51.504;5.316;2023-03-01T02:46:44;-4.40;99.90
32522;DHT22;18963;51.504;5.316;2023-03-01T02:49:29;-4.40;99.90
32522;DHT22;18963;51.504;5.316;2023-03-01T02:54:45;-4.30;99.90
32522;DHT22;18963;51.504;5.316;2023-03-01T02:57:12;-4.20;99.90
32522;DHT22;18963;51.504;5.316;2023-03-01T02:59:37;-4.20;99.90
32522;DHT22;18963;51.504;5.316;2023-03-01T03:02:18;-4.20;99.90
32522;DHT22;18963;51.504;5.316;2023-03-01T03:04:45;-4.20;99.90
32522;DHT22;18963;51.504;5.316;2023-03-01T03:07:11;-4.20;99.90
32522;DHT22;18963;51.504;5.316;2023-03-01T03:09:36;-4.30;99.90
32522;DHT22;18963;51.504;5.316;2023-03-01T03:12:01;-4.40;99.90
32522;DHT22;18963;51.504;5.316;2023-03-01T03:14:27;-4.40;99.90
32522;DHT22;18963;51.504;5.316;2023-03-01T03:16:52;-4.60;99.90
32522;DHT22;18963;51.504;5.316;2023-03-01T03:19:18;-4.70;99.90
32522;DHT22;18963;51.504;5.316;2023-03-01T03:21:44;-4.80;99.90
32522;DHT22;18963;51.504;5.316;2023-03-01T03:24:09;-4.80;99.90
32522;DHT22;18963;51.504;5.316;2023-03-01T03:26:35;-4.80;99.90
32522;DHT22;18963;51.504;5.316;2023-03-01T03:29:00;-4.90;99.90
32522;DHT22;18963;51.504;5.316;2023-03-01T03:31:26;-4.90;99.90
32522;DHT22;18963;51.504;5.316;2023-03-01T03:33:51;-4.90;99.90
32522;DHT22;18963;51.504;5.316;2023-03-01T03:36:18;-5.00;99.90
32522;DHT22;18963;51.504;5.316;2023-03-01T03:38:44;-5.00;99.90
32522;DHT22;18963;51.504;5.316;2023-03-01T03:41:11;-5.10;99.90
32522;DHT22;18963;51.504;5.316;2023-03-01T03:43:37;-5.20;99.90
32522;DHT22;18963;51.504;5.316;2023-03-01T03:46:03;-5.20;99.90
32522;DHT22;18963;51.504;5.316;2023-03-01T03:48:31;-5.20;99.90
32522;DHT22;18963;51.504;5.316;2023-03-01T03:50:58;-5.30;99.90
32522;DHT22;18963;51.504;5.316;2023-03-01T03:53:24;-5.40;99.90
32522;DHT22;18963;51.504;5.316;2023-03-01T03:55:51;-5.40;99.90
32522;DHT22;18963;51.504;5.316;2023-03-01T03:58:17;-5.40;99.90
32522;DHT22;18963;51.504;5.316;2023-03-01T04:00:45;-5.40;99.90
32522;DHT22;18963;51.504;5.316;2023-03-01T04:03:11;-5.40;99.90
32522;DHT22;18963;51.504;5.316;2023-03-01T04:05:38;-5.30;99.90
32522;DHT22;18963;51.504;5.316;2023-03-01T04:08:04;-5.30;99.90
32522;DHT22;18963;51.504;5.316;2023-03-01T04:10:37;-5.30;99.90
32522;DHT22;18963;51.504;5.316;2023-03-01T04:13:03;-5.30;99.90
32522;DHT22;18963;51.504;5.316;2023-03-01T04:15:30;-5.20;99.90
32522;DHT22;18963;51.504;5.316;2023-03-01T04:17:56;-5.10;99.90
32522;DHT22;18963;51.504;5.316;2023-03-01T04:20:26;-5.00;99.90
32522;DHT22;18963;51.504;5.316;2023-03-01T04:22:52;-4.90;99.90
32522;DHT22;18963;51.504;5.316;2023-03-01T04:25:21;-4.90;99.90
32522;DHT22;18963;51.504;5.316;2023-03-01T04:27:46;-4.80;99.90
32522;DHT22;18963;51.504;5.316;2023-03-01T04:30:12;-4.80;99.90
32522;DHT22;18963;51.504;5.316;2023-03-01T04:32:37;-4.80;99.90
32522;DHT22;18963;51.504;5.316;2023-03-01T04:35:03;-4.80;99.90
32522;DHT22;18963;51.504;5.316;2023-03-01T04:37:29;-4.80;99.90
32522;DHT22;18963;51.504;5.316;2023-03-01T04:39:55;-4.70;99.90
32522;DHT22;18963;51.504;5.316;2023-03-01T04:42:20;-4.70;99.90
32522;DHT22;18963;51.504;5.316;2023-03-01T04:44:46;-4.60;99.90
32522;DHT22;18963;51.504;5.316;2023-03-01T04:47:11;-4.50;99.90
32522;DHT22;18963;51.504;5.316;2023-03-01T04:49:37;-4.50;99.90
32522;DHT22;18963;51.504;5.316;2023-03-01T04:52:03;-4.60;99.90
32522;DHT22;18963;51.504;5.316;2023-03-01T04:54:29;-4.60;99.90
32522;DHT22;18963;51.504;5.316;2023-03-01T04:56:54;-4.60;99.90
32522;DHT22;18963;51.504;5.316;2023-03-01T04:59:20;-4.60;99.90
32522;DHT22;18963;51.504;5.316;2023-03-01T05:01:48;-4.60;99.90
32522;DHT22;18963;51.504;5.316;2023-03-01T05:04:13;-4.60;99.90
32522;DHT22;18963;51.504;5.316;2023-03-01T05:06:39;-4.50;99.90
32522;DHT22;18963;51.504;5.316;2023-03-01T05:09:05;-4.50;99.90
32522;DHT22;18963;51.504;5.316;2023-03-01T05:11:30;-4.40;99.90
32522;DHT22;18963;51.504;5.316;2023-03-01T05:14:01;-4.40;99.90
32522;DHT22;18963;51.504;5.316;2023-03-01T05:16:26;-4.50;99.90
32522;DHT22;18963;51.504;5.316;2023-03-01T05:18:52;-4.50;99.90
32522;DHT22;18963;51.504;5.316;2023-03-01T05:21:17;-4.50;99.90
32522;DHT22;18963;51.504;5.316;2023-03-01T05:23:43;-4.50;99.90
32522;DHT22;18963;51.504;5.316;2023-03-01T05:26:09;-4.50;99.90
32522;DHT22;18963;51.504;5.316;2023-03-01T05:28:34;-4.50;99.90
32522;DHT22;18963;51.504;5.316;2023-03-01T05:31:00;-4.60;99.90
32522;DHT22;18963;51.504;5.316;2023-03-01T05:33:26;-4.60;99.90
32522;DHT22;18963;51.504;5.316;2023-03-01T05:35:52;-4.70;99.90
32522;DHT22;18963;51.504;5.316;2023-03-01T05:38:19;-4.70;99.90
32522;DHT22;18963;51.504;5.316;2023-03-01T05:40:45;-4.80;99.90
32522;DHT22;18963;51.504;5.316;2023-03-01T05:43:11;-4.90;99.90
32522;DHT22;18963;51.504;5.316;2023-03-01T05:45:37;-5.00;99.90
32522;DHT22;18963;51.504;5.316;2023-03-01T05:48:04;-5.00;99.90
32522;DHT22;18963;51.504;5.316;2023-03-01T05:50:32;-5.10;99.90
32522;DHT22;18963;51.504;5.316;2023-03-01T05:53:04;-5.20;99.90
32522;DHT22;18963;51.504;5.316;2023-03-01T05:55:33;-5.20;99.90
32522;DHT22;18963;51.504;5.316;2023-03-01T05:57:59;-5.20;99.90
32522;DHT22;18963;51.504;5.316;2023-03-01T06:00:25;-5.30;99.90
32522;DHT22;18963;51.504;5.316;2023-03-01T06:02:50;-5.40;99.90
32522;DHT22;18963;51.504;5.316;2023-03-01T06:05:17;-5.50;99.90
32522;DHT22;18963;51.504;5.316;2023-03-01T06:07:43;-5.50;99.90
32522;DHT22;18963;51.504;5.316;2023-03-01T06:10:09;-5.50;99.90
32522;DHT22;18963;51.504;5.316;2023-03-01T06:12:36;-5.60;99.90
32522;DHT22;18963;51.504;5.316;2023-03-01T06:15:02;-5.60;99.90
32522;DHT22;18963;51.504;5.316;2023-03-01T06:17:29;-5.50;99.90
32522;DHT22;18963;51.504;5.316;2023-03-01T06:19:54;-5.50;99.90
32522;DHT22;18963;51.504;5.316;2023-03-01T06:22:20;-5.50;99.90
32522;DHT22;18963;51.504;5.316;2023-03-01T06:24:45;-5.40;99.90
32522;DHT22;18963;51.504;5.316;2023-03-01T06:27:11;-5.40;99.90
32522;DHT22;18963;51.504;5.316;2023-03-01T06:29:36;-5.40;99.90
32522;DHT22;18963;51.504;5.316;2023-03-01T06:32:02;-5.30;99.90
32522;DHT22;18963;51.504;5.316;2023-03-01T06:34:28;-5.30;99.90
32522;DHT22;18963;51.504;5.316;2023-03-01T06:36:53;-5.10;99.90
32522;DHT22;18963;51.504;5.316;2023-03-01T06:39:19;-5.00;99.90
32522;DHT22;18963;51.504;5.316;2023-03-01T06:41:44;-5.00;99.90
32522;DHT22;18963;51.504;5.316;2023-03-01T06:44:10;-4.80;99.90
32522;DHT22;18963;51.504;5.316;2023-03-01T06:46:35;-4.70;99.90
32522;DHT22;18963;51.504;5.316;2023-03-01T06:49:01;-4.60;99.90
32522;DHT22;18963;51.504;5.316;2023-03-01T06:51:29;-4.50;99.90
32522;DHT22;18963;51.504;5.316;2023-03-01T06:53:55;-4.40;99.90
32522;DHT22;18963;51.504;5.316;2023-03-01T06:56:23;-4.30;99.90
32522;DHT22;18963;51.504;5.316;2023-03-01T06:58:49;-4.10;99.90
32522;DHT22;18963;51.504;5.316;2023-03-01T07:01:15;-3.90;99.90
32522;DHT22;18963;51.504;5.316;2023-03-01T07:03:40;-3.80;99.90
32522;DHT22;18963;51.504;5.316;2023-03-01T07:06:06;-3.70;99.90
32522;DHT22;18963;51.504;5.316;2023-03-01T07:08:31;-3.50;99.90
32522;DHT22;18963;51.504;5.316;2023-03-01T07:10:57;-3.30;99.90
32522;DHT22;18963;51.504;5.316;2023-03-01T07:13:22;-3.10;99.90
32522;DHT22;18963;51.504;5.316;2023-03-01T07:15:48;-2.90;99.90
32522;DHT22;18963;51.504;5.316;2023-03-01T07:18:13;-2.70;99.90
32522;DHT22;18963;51.504;5.316;2023-03-01T07:20:39;-2.60;99.90
32522;DHT22;18963;51.504;5.316;2023-03-01T07:23:05;-2.30;99.90
32522;DHT22;18963;51.504;5.316;2023-03-01T07:25:31;-2.20;99.90
32522;DHT22;18963;51.504;5.316;2023-03-01T07:27:57;-1.90;99.90
32522;DHT22;18963;51.504;5.316;2023-03-01T07:30:23;-1.70;99.90
32522;DHT22;18963;51.504;5.316;2023-03-01T07:32:51;-1.50;99.90
32522;DHT22;18963;51.504;5.316;2023-03-01T07:35:17;-1.30;99.90
32522;DHT22;18963;51.504;5.316;2023-03-01T07:37:42;-1.10;99.90
32522;DHT22;18963;51.504;5.316;2023-03-01T07:40:08;-1.00;99.90
32522;DHT22;18963;51.504;5.316;2023-03-01T07:42:34;-0.80;99.90
32522;DHT22;18963;51.504;5.316;2023-03-01T07:44:59;-0.60;99.90
32522;DHT22;18963;51.504;5.316;2023-03-01T07:47:25;-0.40;99.90
32522;DHT22;18963;51.504;5.316;2023-03-01T07:49:50;-0.20;99.90
32522;DHT22;18963;51.504;5.316;2023-03-01T07:52:16;0.00;99.90
32522;DHT22;18963;51.504;5.316;2023-03-01T07:54:44;0.10;99.90
32522;DHT22;18963;51.504;5.316;2023-03-01T07:57:10;0.20;99.90
32522;DHT22;18963;51.504;5.316;2023-03-01T07:59:35;0.40;99.90
32522;DHT22;18963;51.504;5.316;2023-03-01T08:02:01;0.50;99.90
32522;DHT22;18963;51.504;5.316;2023-03-01T08:04:26;0.70;99.90
32522;DHT22;18963;51.504;5.316;2023-03-01T08:06:52;1.00;99.90
32522;DHT22;18963;51.504;5.316;2023-03-01T08:09:18;1.10;99.90
32522;DHT22;18963;51.504;5.316;2023-03-01T08:11:43;1.30;99.90
32522;DHT22;18963;51.504;5.316;2023-03-01T08:14:09;1.50;99.90
32522;DHT22;18963;51.504;5.316;2023-03-01T08:16:35;1.60;99.90
32522;DHT22;18963;51.504;5.316;2023-03-01T08:19:05;1.90;99.90
32522;DHT22;18963;51.504;5.316;2023-03-01T08:21:30;2.00;99.90
32522;DHT22;18963;51.504;5.316;2023-03-01T08:23:56;2.30;99.90
32522;DHT22;18963;51.504;5.316;2023-03-01T08:26:21;2.40;99.90
32522;DHT22;18963;51.504;5.316;2023-03-01T08:28:48;2.60;99.90
32522;DHT22;18963;51.504;5.316;2023-03-01T08:31:15;2.90;99.90
32522;DHT22;18963;51.504;5.316;2023-03-01T08:33:40;3.00;99.90
32522;DHT22;18963;51.504;5.316;2023-03-01T08:36:06;3.10;99.90
32522;DHT22;18963;51.504;5.316;2023-03-01T08:38:32;3.30;99.90
32522;DHT22;18963;51.504;5.316;2023-03-01T08:41:01;3.40;99.90
32522;DHT22;18963;51.504;5.316;2023-03-01T08:43:27;3.50;99.90
32522;DHT22;18963;51.504;5.316;2023-03-01T08:45:52;3.60;99.90
32522;DHT22;18963;51.504;5.316;2023-03-01T08:48:18;3.80;99.90
32522;DHT22;18963;51.504;5.316;2023-03-01T08:50:43;3.90;99.90
32522;DHT22;18963;51.504;5.316;2023-03-01T08:53:09;4.00;99.90
32522;DHT22;18963;51.504;5.316;2023-03-01T08:55:34;4.10;99.90
32522;DHT22;18963;51.504;5.316;2023-03-01T08:58:00;4.20;99.90
32522;DHT22;18963;51.504;5.316;2023-03-01T09:00:25;4.30;99.90
32522;DHT22;18963;51.504;5.316;2023-03-01T09:02:51;4.50;99.90
32522;DHT22;18963;51.504;5.316;2023-03-01T09:05:16;4.50;99.90
32522;DHT22;18963;51.504;5.316;2023-03-01T09:07:42;4.60;99.90
32522;DHT22;18963;51.504;5.316;2023-03-01T09:10:08;4.80;99.90
32522;DHT22;18963;51.504;5.316;2023-03-01T09:12:33;4.80;99.90
32522;DHT22;18963;51.504;5.316;2023-03-01T09:14:59;4.80;99.90
32522;DHT22;18963;51.504;5.316;2023-03-01T09:17:24;5.10;99.90
32522;DHT22;18963;51.504;5.316;2023-03-01T09:19:50;5.30;99.90
32522;DHT22;18963;51.504;5.316;2023-03-01T09:22:15;5.30;98.70
32522;DHT22;18963;51.504;5.316;2023-03-01T09:24:41;5.50;98.30
32522;DHT22;18963;51.504;5.316;2023-03-01T09:27:06;5.40;97.90
32522;DHT22;18963;51.504;5.316;2023-03-01T09:29:36;5.40;97.00
32522;DHT22;18963;51.504;5.316;2023-03-01T09:32:02;5.30;96.50
32522;DHT22;18963;51.504;5.316;2023-03-01T09:34:28;5.30;97.40
32522;DHT22;18963;51.504;5.316;2023-03-01T09:36:53;5.40;98.00
32522;DHT22;18963;51.504;5.316;2023-03-01T09:39:19;5.50;98.80
32522;DHT22;18963;51.504;5.316;2023-03-01T09:46:41;5.60;96.70
32522;DHT22;18963;51.504;5.316;2023-03-01T09:49:12;5.60;95.80
32522;DHT22;18963;51.504;5.316;2023-03-01T09:51:39;5.70;97.10
32522;DHT22;18963;51.504;5.316;2023-03-01T09:54:05;5.90;96.10
32522;DHT22;18963;51.504;5.316;2023-03-01T09:59:01;6.10;94.40
32522;DHT22;18963;51.504;5.316;2023-03-01T10:06:29;6.30;94.00
32522;DHT22;18963;51.504;5.316;2023-03-01T10:08:56;6.30;93.40
32522;DHT22;18963;51.504;5.316;2023-03-01T10:11:28;6.30;92.30
32522;DHT22;18963;51.504;5.316;2023-03-01T10:16:28;6.20;91.60
32522;DHT22;18963;51.504;5.316;2023-03-01T10:19:00;6.00;90.60
32522;DHT22;18963;51.504;5.316;2023-03-01T10:21:27;6.10;91.80
32522;DHT22;18963;51.504;5.316;2023-03-01T10:23:52;6.20;92.10
32522;DHT22;18963;51.504;5.316;2023-03-01T10:29:06;6.60;90.60
32522;DHT22;18963;51.504;5.316;2023-03-01T10:34:02;7.00;91.10
32522;DHT22;18963;51.504;5.316;2023-03-01T10:36:28;7.10;90.50
32522;DHT22;18963;51.504;5.316;2023-03-01T10:38:57;7.10;88.50
32522;DHT22;18963;51.504;5.316;2023-03-01T10:41:26;7.10;89.60
32522;DHT22;18963;51.504;5.316;2023-03-01T10:43:56;7.20;88.10
32522;DHT22;18963;51.504;5.316;2023-03-01T10:51:34;7.60;86.00
32522;DHT22;18963;51.504;5.316;2023-03-01T10:53:59;7.70;85.60
32522;DHT22;18963;51.504;5.316;2023-03-01T10:56:26;7.80;87.40
32522;DHT22;18963;51.504;5.316;2023-03-01T10:59:03;8.10;85.20
32522;DHT22;18963;51.504;5.316;2023-03-01T11:01:30;8.10;81.30
32522;DHT22;18963;51.504;5.316;2023-03-01T11:06:32;8.40;80.50
32522;DHT22;18963;51.504;5.316;2023-03-01T11:09:01;8.60;80.20
32522;DHT22;18963;51.504;5.316;2023-03-01T11:11:38;8.90;80.00
32522;DHT22;18963;51.504;5.316;2023-03-01T11:14:07;8.90;76.90
32522;DHT22;18963;51.504;5.316;2023-03-01T11:16:34;8.80;73.00
32522;DHT22;18963;51.504;5.316;2023-03-01T11:19:21;8.60;73.90
32522;DHT22;18963;51.504;5.316;2023-03-01T11:21:57;8.70;74.80
32522;DHT22;18963;51.504;5.316;2023-03-01T11:24:26;8.80;74.10
32522;DHT22;18963;51.504;5.316;2023-03-01T11:26:54;8.80;73.20
32522;DHT22;18963;51.504;5.316;2023-03-01T11:31:54;9.10;75.10
32522;DHT22;18963;51.504;5.316;2023-03-01T11:34:23;9.20;70.20
32522;DHT22;18963;51.504;5.316;2023-03-01T11:36:54;9.30;70.50
32522;DHT22;18963;51.504;5.316;2023-03-01T11:44:29;10.30;66.60
32522;DHT22;18963;51.504;5.316;2023-03-01T11:52:15;10.00;62.60
32522;DHT22;18963;51.504;5.316;2023-03-01T12:00:07;11.00;59.80
32522;DHT22;18963;51.504;5.316;2023-03-01T12:02:56;11.20;59.70
32522;DHT22;18963;51.504;5.316;2023-03-01T12:10:25;10.80;58.10
32522;DHT22;18963;51.504;5.316;2023-03-01T12:13:08;10.50;57.60
32522;DHT22;18963;51.504;5.316;2023-03-01T12:20:58;9.50;58.50
32522;DHT22;18963;51.504;5.316;2023-03-01T12:23:35;9.30;61.20
32522;DHT22;18963;51.504;5.316;2023-03-01T12:26:26;9.00;63.10
32522;DHT22;18963;51.504;5.316;2023-03-01T12:31:46;8.70;63.50
32522;DHT22;18963;51.504;5.316;2023-03-01T12:34:28;8.70;64.20
32522;DHT22;18963;51.504;5.316;2023-03-01T12:37:10;8.20;63.40
32522;DHT22;18963;51.504;5.316;2023-03-01T12:49:31;7.40;66.10
32522;DHT22;18963;51.504;5.316;2023-03-01T12:52:01;7.40;67.40
32522;DHT22;18963;51.504;5.316;2023-03-01T12:54:29;7.30;69.20
32522;DHT22;18963;51.504;5.316;2023-03-01T12:56:57;7.40;69.50
32522;DHT22;18963;51.504;5.316;2023-03-01T12:59:30;7.40;69.00
32522;DHT22;18963;51.504;5.316;2023-03-01T13:04:25;7.10;67.60
32522;DHT22;18963;51.504;5.316;2023-03-01T13:09:40;6.80;68.30
32522;DHT22;18963;51.504;5.316;2023-03-01T13:14:53;6.60;71.00
32522;DHT22;18963;51.504;5.316;2023-03-01T13:17:29;6.50;72.80
32522;DHT22;18963;51.504;5.316;2023-03-01T13:19:56;6.50;73.50
32522;DHT22;18963;51.504;5.316;2023-03-01T13:22:25;6.50;74.40
32522;DHT22;18963;51.504;5.316;2023-03-01T13:25:00;6.40;73.90
32522;DHT22;18963;51.504;5.316;2023-03-01T13:27:26;6.40;73.90
32522;DHT22;18963;51.504;5.316;2023-03-01T13:34:46;6.40;76.10
32522;DHT22;18963;51.504;5.316;2023-03-01T13:37:23;6.40;74.90
32522;DHT22;18963;51.504;5.316;2023-03-01T13:39:51;6.40;75.70
32522;DHT22;18963;51.504;5.316;2023-03-01T13:45:03;6.40;77.60
32522;DHT22;18963;51.504;5.316;2023-03-01T13:47:29;6.50;77.40
32522;DHT22;18963;51.504;5.316;2023-03-01T13:49:56;6.50;76.30
32522;DHT22;18963;51.504;5.316;2023-03-01T13:55:00;6.50;75.60
32522;DHT22;18963;51.504;5.316;2023-03-01T13:57:35;6.50;77.50
32522;DHT22;18963;51.504;5.316;2023-03-01T14:00:02;6.60;79.80
32522;DHT22;18963;51.504;5.316;2023-03-01T14:02:29;6.60;76.50
32522;DHT22;18963;51.504;5.316;2023-03-01T14:04:56;6.50;76.40
32522;DHT22;18963;51.504;5.316;2023-03-01T14:07:22;6.50;76.10
32522;DHT22;18963;51.504;5.316;2023-03-01T14:09:53;6.50;75.90
32522;DHT22;18963;51.504;5.316;2023-03-01T14:15:07;6.40;75.10
32522;DHT22;18963;51.504;5.316;2023-03-01T14:20:20;6.60;75.40
32522;DHT22;18963;51.504;5.316;2023-03-01T14:22:46;6.60;74.30
32522;DHT22;18963;51.504;5.316;2023-03-01T14:25:20;6.60;75.30
32522;DHT22;18963;51.504;5.316;2023-03-01T14:27:50;6.60;74.80
32522;DHT22;18963;51.504;5.316;2023-03-01T14:30:35;6.50;74.50
32522;DHT22;18963;51.504;5.316;2023-03-01T14:33:03;6.60;76.60
32522;DHT22;18963;51.504;5.316;2023-03-01T14:35:30;6.60;75.70
32522;DHT22;18963;51.504;5.316;2023-03-01T14:37:56;6.60;76.00
32522;DHT22;18963;51.504;5.316;2023-03-01T14:40:27;6.70;73.50
32522;DHT22;18963;51.504;5.316;2023-03-01T14:42:53;6.60;72.60
32522;DHT22;18963;51.504;5.316;2023-03-01T14:45:19;6.70;72.70
32522;DHT22;18963;51.504;5.316;2023-03-01T14:47:45;6.70;72.50
32522;DHT22;18963;51.504;5.316;2023-03-01T14:50:17;6.60;71.50
32522;DHT22;18963;51.504;5.316;2023-03-01T14:52:45;6.70;72.70
32522;DHT22;18963;51.504;5.316;2023-03-01T14:55:19;6.70;72.00
32522;DHT22;18963;51.504;5.316;2023-03-01T14:57:49;6.60;72.60
32522;DHT22;18963;51.504;5.316;2023-03-01T15:00:20;6.60;73.70
32522;DHT22;18963;51.504;5.316;2023-03-01T15:02:47;6.70;74.60
32522;DHT22;18963;51.504;5.316;2023-03-01T15:05:13;6.60;73.80
32522;DHT22;18963;51.504;5.316;2023-03-01T15:07:40;6.70;73.90
32522;DHT22;18963;51.504;5.316;2023-03-01T15:10:11;6.70;72.10
32522;DHT22;18963;51.504;5.316;2023-03-01T15:12:40;6.70;71.40
32522;DHT22;18963;51.504;5.316;2023-03-01T15:17:52;6.70;72.10
32522;DHT22;18963;51.504;5.316;2023-03-01T15:20:20;6.70;70.90
32522;DHT22;18963;51.504;5.316;2023-03-01T15:22:51;6.70;69.90
32522;DHT22;18963;51.504;5.316;2023-03-01T15:25:18;6.60;70.80
32522;DHT22;18963;51.504;5.316;2023-03-01T15:27:45;6.60;70.70
32522;DHT22;18963;51.504;5.316;2023-03-01T15:30:21;6.60;72.00
32522;DHT22;18963;51.504;5.316;2023-03-01T15:32:48;6.60;73.20
32522;DHT22;18963;51.504;5.316;2023-03-01T15:35:33;6.60;73.60
32522;DHT22;18963;51.504;5.316;2023-03-01T15:38:00;6.60;73.50
32522;DHT22;18963;51.504;5.316;2023-03-01T15:40:27;6.50;73.70
32522;DHT22;18963;51.504;5.316;2023-03-01T15:42:59;6.50;73.00
32522;DHT22;18963;51.504;5.316;2023-03-01T15:45:25;6.60;72.60
32522;DHT22;18963;51.504;5.316;2023-03-01T15:47:56;6.50;72.20
32522;DHT22;18963;51.504;5.316;2023-03-01T15:50:28;6.50;72.80
32522;DHT22;18963;51.504;5.316;2023-03-01T15:52:54;6.50;73.70
32522;DHT22;18963;51.504;5.316;2023-03-01T15:55:22;6.50;74.10
32522;DHT22;18963;51.504;5.316;2023-03-01T15:57:48;6.50;75.30
32522;DHT22;18963;51.504;5.316;2023-03-01T16:00:14;6.40;74.80
32522;DHT22;18963;51.504;5.316;2023-03-01T16:02:41;6.40;75.00
32522;DHT22;18963;51.504;5.316;2023-03-01T16:05:13;6.40;74.10
32522;DHT22;18963;51.504;5.316;2023-03-01T16:07:41;6.30;73.90
32522;DHT22;18963;51.504;5.316;2023-03-01T16:10:06;6.40;74.10
32522;DHT22;18963;51.504;5.316;2023-03-01T16:12:32;6.30;74.40
32522;DHT22;18963;51.504;5.316;2023-03-01T16:14:57;6.30;72.90
32522;DHT22;18963;51.504;5.316;2023-03-01T16:17:23;6.20;74.20
32522;DHT22;18963;51.504;5.316;2023-03-01T16:19:49;6.20;74.80
32522;DHT22;18963;51.504;5.316;2023-03-01T16:22:14;6.20;75.20
32522;DHT22;18963;51.504;5.316;2023-03-01T16:24:40;6.10;75.10
32522;DHT22;18963;51.504;5.316;2023-03-01T16:27:06;6.10;74.70
32522;DHT22;18963;51.504;5.316;2023-03-01T16:29:32;6.00;75.30
32522;DHT22;18963;51.504;5.316;2023-03-01T16:31:59;6.00;76.60
32522;DHT22;18963;51.504;5.316;2023-03-01T16:34:25;5.90;75.20
32522;DHT22;18963;51.504;5.316;2023-03-01T16:36:50;5.90;75.40
32522;DHT22;18963;51.504;5.316;2023-03-01T16:39:16;5.90;76.30
32522;DHT22;18963;51.504;5.316;2023-03-01T16:41:41;5.90;76.90
32522;DHT22;18963;51.504;5.316;2023-03-01T16:44:07;5.80;77.20
32522;DHT22;18963;51.504;5.316;2023-03-01T16:46:32;5.80;77.50
32522;DHT22;18963;51.504;5.316;2023-03-01T16:48:58;5.70;78.00
32522;DHT22;18963;51.504;5.316;2023-03-01T16:51:24;5.70;78.70
32522;DHT22;18963;51.504;5.316;2023-03-01T16:53:49;5.60;79.60
32522;DHT22;18963;51.504;5.316;2023-03-01T16:56:15;5.60;80.00
32522;DHT22;18963;51.504;5.316;2023-03-01T16:58:42;5.50;80.60
32522;DHT22;18963;51.504;5.316;2023-03-01T17:01:08;5.40;80.40
32522;DHT22;18963;51.504;5.316;2023-03-01T17:03:36;5.40;80.00
32522;DHT22;18963;51.504;5.316;2023-03-01T17:06:02;5.40;80.20
32522;DHT22;18963;51.504;5.316;2023-03-01T17:08:28;5.30;79.90
32522;DHT22;18963;51.504;5.316;2023-03-01T17:10:53;5.20;80.00
32522;DHT22;18963;51.504;5.316;2023-03-01T17:13:19;5.20;80.40
32522;DHT22;18963;51.504;5.316;2023-03-01T17:15:44;5.20;80.10
32522;DHT22;18963;51.504;5.316;2023-03-01T17:18:10;5.20;79.50
32522;DHT22;18963;51.504;5.316;2023-03-01T17:20:35;5.10;80.00
32522;DHT22;18963;51.504;5.316;2023-03-01T17:23:01;5.10;80.70
32522;DHT22;18963;51.504;5.316;2023-03-01T17:25:27;5.00;81.50
32522;DHT22;18963;51.504;5.316;2023-03-01T17:27:53;4.90;82.20
32522;DHT22;18963;51.504;5.316;2023-03-01T17:30:18;4.80;82.60